Terminal Aerodrome Forecast
Issued by NWS

Home | Current Version | Previous Version | Text Only | Print | Product List | Glossary On
Versions: 1 2 3 4 5 6 7 8 9 10 11 12 13 14 15 16 17 18 19 20 21 22 23 24 25 26 27
217
FTUS41 KBTV 192101 AAA
TAFSLK
TAF AMD
KSLK 192101Z 1921/2018 31007KT P6SM VCSH SCT015 OVC040
      TEMPO 1921/1924 2SM -SN BR OVC015
     FM200100 31009G16KT 3SM -SHSN OVC015
     FM200800 30009KT P6SM VCSH OVC020
     FM201600 30010G18KT P6SM OVC025=

USA.gov is the U.S. government's official web portal to all federal, state and local government web resources and services.